Currently 74°F in Riverside (Presidential Park), California, USA
74°F
74°F / 73°F
calm
0.00"
Sunday, August 1, 2021 12:11 AM PDT

Riverside (Presidential Park), California Weather Summary
Last 36 Hours

Temperature Winds Hourly Humidity Dewpoint
Time Report Norm Report Norm Max Gusts Precip. Rpt. Norm Rpt. Norm Pressure
1Sun 12:11 AM  74.0°F  73°F  calm  2 mph  2 mph  0.00"  40%  62%  47°F  58°F  30.00"
3Sun 12:10 AM  73.4°F  73°F  calm  2 mph  2 mph  ----  40%  62%  47°F  58°F  30.00"
2Sun 12:00 AM  74.2°F  73°F  1 mph E  2 mph  3 mph  0.00"  39%  61%  47°F  58°F  30.00"
Sat 11:00 PM  76.1°F  74°F  1 mph E  2 mph  3 mph  0.00"  37%  58%  47°F  58°F  30.01"
Sat 10:00 PM  78.4°F  76°F  2 mph SW  3 mph  9 mph  0.00"  33%  55%  46°F  58°F  30.01"
Sat 09:00 PM  80.2°F  78°F  4 mph W  4 mph  10 mph  0.00"  31%  50%  46°F  57°F  29.99"
Sat 08:00 PM  83.9°F  81°F  7 mph W  5 mph  12 mph  0.00"  21%  44%  38°F  57°F  29.97"
Sat 07:00 PM  86.5°F  85°F  8 mph SW  6 mph  17 mph  0.00"  15%  39%  32°F  56°F  29.96"
Sat 06:00 PM  88.2°F  87°F  10 mph SW  8 mph  18 mph  0.00"  15%  34%  33°F  55°F  29.95"
Sat 05:00 PM  89.3°F  89°F  9 mph SW  8 mph  19 mph  0.00"  27%  31%  50°F  54°F  29.94"
Sat 04:00 PM  91.0°F  91°F  8 mph W  8 mph  21 mph  0.00"  28%  30%  52°F  54°F  29.93"
Sat 03:00 PM  93.7°F  91°F  13 mph SW  8 mph  20 mph  0.00"  19%  30%  44°F  55°F  29.95"
Sat 02:00 PM  95.0°F  91°F  10 mph W  6 mph  17 mph  0.00"  22%  31%  49°F  55°F  29.95"
Sat 01:00 PM  93.0°F  89°F  4 mph W  5 mph  11 mph  0.00"  23%  34%  49°F  56°F  29.96"
Sat 12:00 PM  90.1°F  86°F  3 mph W  4 mph  9 mph  0.00"  29%  40%  52°F  57°F  29.98"
Sat 11:00 AM  85.4°F  82°F  2 mph SW  3 mph  7 mph  0.00"  38%  47%  56°F  59°F  30.00"
Sat 10:00 AM  81.0°F  78°F  2 mph SW  2 mph  6 mph  0.00"  48%  55%  59°F  60°F  30.01"
Sat 09:00 AM  76.0°F  74°F  2 mph W  2 mph  5 mph  0.00"  58%  63%  60°F  60°F  30.01"
Sat 08:00 AM  71.6°F  70°F  1 mph S  1 mph  5 mph  0.00"  66%  72%  59°F  60°F  30.00"
Sat 07:00 AM  68.9°F  67°F  calm  1 mph  4 mph  0.00"  70%  75%  58°F  59°F  29.99"
Sat 06:00 AM  68.5°F  67°F  calm  1 mph  3 mph  0.00"  68%  74%  57°F  58°F  29.97"
Sat 05:00 AM  68.7°F  68°F  calm  1 mph  4 mph  0.00"  67%  73%  57°F  58°F  29.96"
Sat 04:00 AM  70.1°F  69°F  1 mph SE  1 mph  4 mph  0.00"  65%  71%  57°F  59°F  29.97"
Sat 03:00 AM  71.2°F  69°F  2 mph SE  1 mph  4 mph  0.00"  62%  69%  57°F  59°F  29.97"
Sat 02:00 AM  72.0°F  71°F  calm  1 mph  3 mph  0.00"  60%  67%  57°F  59°F  29.98"
Sat 01:00 AM  73.7°F  72°F  calm  1 mph  3 mph  0.00"  58%  64%  58°F  59°F  29.98"
Sat 12:00 AM  74.1°F  73°F  1 mph S  2 mph  5 mph  0.00"  55%  62%  57°F  59°F  29.98"
Fri 11:00 PM  74.9°F  74°F  4 mph SW  2 mph  6 mph  0.00"  53%  58%  56°F  58°F  29.97"
Fri 10:00 PM  76.9°F  76°F  4 mph SW  3 mph  8 mph  0.00"  50%  55%  56°F  58°F  29.98"
Fri 09:00 PM  79.1°F  78°F  5 mph W  4 mph  10 mph  0.00"  47%  50%  56°F  58°F  29.97"
Fri 08:00 PM  82.2°F  81°F  3 mph W  5 mph  11 mph  0.00"  40%  44%  55°F  57°F  29.94"
Fri 07:00 PM  85.8°F  85°F  5 mph W  6 mph  14 mph  0.00"  28%  39%  48°F  56°F  29.91"
Fri 06:00 PM  90.1°F  87°F  7 mph W  8 mph  13 mph  0.00"  15%  35%  35°F  55°F  29.90"
Fri 05:00 PM  90.8°F  89°F  4 mph SW  8 mph  13 mph  0.00"  27%  32%  51°F  54°F  29.88"
Fri 04:00 PM  92.8°F  91°F  6 mph W  8 mph  14 mph  0.00"  27%  31%  53°F  55°F  29.85"
Fri 03:00 PM  95.4°F  91°F  5 mph W  8 mph  14 mph  0.00"  23%  30%  50°F  55°F  29.86"
Fri 02:00 PM  93.6°F  91°F  8 mph W  6 mph  12 mph  0.00"  20%  32%  45°F  56°F  29.88"
Fri 01:00 PM  91.2°F  89°F  6 mph W  5 mph  12 mph  0.00"  25%  34%  49°F  56°F  29.89"
Fri 12:00 PM  88.1°F  85°F  3 mph SW  4 mph  12 mph  0.00"  30%  40%  52°F  58°F  29.90"

  1. Current weather data. No green row appears if the current weather data is also the high or low for the current day.
  2. High temperature for the current day.
  3. Low temperature for the current day.

The Riverside (Presidential Park), California weather pages are a service of WeatherCurrents.
Copyright ©2021  WeatherCurrents. All rights reserved. - Submit questions and comments - Privacy Policy

This page automatically refreshes every 10 minutes.